Time;durP1;ratioP1;P1;durP2;ratioP2;P2;SDS_P1;SDS_P2;PMS_P1;PMS_P2;Temp;Humidity;BMP_temperature;BMP_pressure;BME280_temperature;BME280_humidity;BME280_pressure;Samples;Min_cycle;Max_cycle;Signal;HPM_P1;HPM_P2
2021/04/04 00:01:20;;;;;;;;;;;18.30;42.70;;;;;;5051751;28;19913;-71
2021/04/04 00:03:47;;;;;;;;;;;18.10;42.90;;;;;;5050842;28;19912;-71
2021/04/04 00:06:13;;;;;;;;;;;18.20;43.30;;;;;;5049066;28;19909;-72
2021/04/04 00:08:39;;;;;;;;;;;18.20;42.60;;;;;;5051733;28;19946;-71
2021/04/04 00:11:05;;;;;;;;;;;18.20;42.60;;;;;;5051014;28;20254;-72
2021/04/04 00:13:32;;;;;;;;;;;18.10;42.70;;;;;;5035914;28;19908;-72
2021/04/04 00:15:58;;;;;;;;;;;18.20;41.90;;;;;;5052533;28;19909;-71
2021/04/04 00:18:24;;;;;;;;;;;18.00;42.90;;;;;;5052319;28;19912;-72
2021/04/04 00:20:50;;;;;;;;;;;18.10;43.00;;;;;;5052462;28;20293;-72
2021/04/04 00:23:16;;;;;;;;;;;18.10;42.70;;;;;;5048428;28;20524;-71
2021/04/04 00:25:42;;;;;;;;;;;18.10;42.80;;;;;;5049182;28;20386;-72
2021/04/04 00:28:08;;;;;;;;;;;18.10;43.10;;;;;;5047621;28;19917;-72
2021/04/04 00:30:34;;;;;;;;;;;18.00;43.30;;;;;;5053389;28;19983;-73
2021/04/04 00:33:00;;;;;;;;;;;18.10;43.00;;;;;;5056132;28;19913;-72
2021/04/04 00:35:27;;;;;;;;;;;18.00;43.30;;;;;;5039069;28;19947;-72
2021/04/04 00:37:53;;;;;;;;;;;18.00;44.10;;;;;;5056250;28;20035;-71
2021/04/04 00:40:21;;;;;;;;;;;17.70;43.70;;;;;;5056110;28;19909;-71
2021/04/04 00:42:47;;;;;;;;;;;17.90;43.40;;;;;;5054791;28;20410;-72
2021/04/04 00:45:14;;;;;;;;;;;17.80;43.50;;;;;;5056185;28;19916;-71
2021/04/04 00:47:40;;;;;;;;;;;17.80;43.50;;;;;;5055769;28;20342;-72
2021/04/04 00:50:08;;;;;;;;;;;17.70;43.30;;;;;;5057609;28;19909;-71
2021/04/04 00:52:34;;;;;;;;;;;17.60;43.30;;;;;;5056720;28;19940;-71
2021/04/04 00:55:00;;;;;;;;;;;17.50;43.60;;;;;;5057619;28;19966;-72
2021/04/04 00:57:26;;;;;;;;;;;17.40;43.80;;;;;;5054475;28;19995;-72
2021/04/04 00:59:53;;;;;;;;;;;17.20;44.30;;;;;;5055024;28;19916;-72
2021/04/04 01:02:19;;;;;;;;;;;17.20;44.40;;;;;;5057208;28;19908;-72
2021/04/04 01:04:48;;;;;;;;;;;17.10;45.00;;;;;;5056325;28;19939;-71
2021/04/04 01:07:14;;;;;;;;;;;17.10;45.30;;;;;;5055476;28;19916;-71
2021/04/04 01:09:40;;;;;;;;;;;17.00;45.90;;;;;;5052925;28;19909;-71
2021/04/04 01:12:12;;;;;;;;;;;16.80;45.80;;;;;;5055264;28;19908;-71
2021/04/04 01:14:44;;;;;;;;;;;16.80;46.80;;;;;;5055886;28;19915;-71
2021/04/04 01:17:11;;;;;;;;;;;16.80;47.60;;;;;;5057426;28;19908;-71
2021/04/04 01:19:53;;;;;;;;;;;16.70;46.60;;;;;;5053829;28;19909;-73
2021/04/04 01:22:27;;;;;;;;;;;16.70;47.60;;;;;;5036490;28;19909;-75
2021/04/04 01:25:05;;;;;;;;;;;16.70;47.60;;;;;;5056787;28;19912;-73
2021/04/04 01:27:50;;;;;;;;;;;16.70;47.90;;;;;;5058375;28;19928;-71
2021/04/04 01:30:16;;;;;;;;;;;16.50;47.50;;;;;;5055800;28;19909;-71
2021/04/04 01:32:44;;;;;;;;;;;16.40;48.80;;;;;;5054059;28;20051;-71
2021/04/04 01:35:12;;;;;;;;;;;16.40;48.30;;;;;;5054562;28;20398;-71
2021/04/04 01:37:39;;;;;;;;;;;16.30;48.70;;;;;;5052972;28;19920;-71
2021/04/04 01:40:07;;;;;;;;;;;16.20;48.70;;;;;;5053259;28;19916;-72
2021/04/04 01:42:34;;;;;;;;;;;16.20;49.30;;;;;;5034830;28;19913;-72
2021/04/04 01:45:01;;;;;;;;;;;16.10;49.00;;;;;;5053994;28;19931;-72
2021/04/04 01:47:27;;;;;;;;;;;16.10;49.70;;;;;;5054518;28;19908;-73
2021/04/04 01:49:53;;;;;;;;;;;16.00;49.40;;;;;;5036215;28;19913;-72
2021/04/04 01:52:20;;;;;;;;;;;15.90;49.70;;;;;;5055730;28;20389;-73
2021/04/04 01:54:47;;;;;;;;;;;16.00;49.20;;;;;;5055871;28;19973;-72
2021/04/04 01:57:13;;;;;;;;;;;15.90;49.50;;;;;;5056490;28;19999;-71
2021/04/04 01:59:40;;;;;;;;;;;15.90;49.30;;;;;;5055920;28;19913;-73
2021/04/04 02:02:08;;;;;;;;;;;15.90;49.50;;;;;;5055180;28;19964;-73
2021/04/04 02:04:35;;;;;;;;;;;15.90;50.00;;;;;;5055382;28;19952;-73
2021/04/04 02:07:02;;;;;;;;;;;15.80;50.50;;;;;;5056431;28;19958;-72
2021/04/04 02:09:28;;;;;;;;;;;15.70;50.60;;;;;;5054821;28;19904;-71
2021/04/04 02:11:55;;;;;;;;;;;15.60;51.30;;;;;;5055554;28;19909;-72
2021/04/04 02:14:23;;;;;;;;;;;15.60;51.40;;;;;;5055930;28;20357;-72
2021/04/04 02:16:54;;;;;;;;;;;15.40;50.90;;;;;;5055285;28;19908;-71
2021/04/04 02:19:23;;;;;;;;;;;15.40;50.80;;;;;;5056399;28;20007;-72
2021/04/04 02:21:50;;;;;;;;;;;15.40;51.60;;;;;;5056027;28;20351;-72
2021/04/04 02:24:17;;;;;;;;;;;15.40;51.70;;;;;;5053607;28;19936;-73
2021/04/04 02:26:43;;;;;;;;;;;15.30;51.60;;;;;;5055130;28;19908;-71
2021/04/04 02:29:09;;;;;;;;;;;15.30;51.70;;;;;;5056082;28;19908;-71
2021/04/04 02:31:43;;;;;;;;;;;15.20;52.30;;;;;;5053624;28;19999;-71
2021/04/04 02:34:14;;;;;;;;;;;15.20;52.70;;;;;;5035971;28;19920;-72
2021/04/04 02:36:41;;;;;;;;;;;15.10;52.70;;;;;;5052863;28;20011;-72
2021/04/04 02:39:19;;;;;;;;;;;15.00;52.90;;;;;;5052463;28;19913;-71
2021/04/04 02:41:45;;;;;;;;;;;15.00;53.10;;;;;;5054219;28;20292;-71
2021/04/04 02:44:12;;;;;;;;;;;14.90;51.80;;;;;;5037864;28;19908;-71
2021/04/04 02:46:40;;;;;;;;;;;14.90;52.60;;;;;;5053674;28;19952;-71
2021/04/04 02:49:07;;;;;;;;;;;14.90;52.70;;;;;;5037941;28;19911;-72
2021/04/04 02:51:38;;;;;;;;;;;14.90;53.30;;;;;;5054953;28;20257;-71
2021/04/04 02:54:05;;;;;;;;;;;14.90;53.00;;;;;;5050921;28;20350;-72
2021/04/04 02:56:35;;;;;;;;;;;14.90;53.00;;;;;;5052539;28;19957;-72
2021/04/04 02:59:01;;;;;;;;;;;14.70;52.90;;;;;;5051238;28;20235;-71
2021/04/04 03:01:28;;;;;;;;;;;14.80;53.30;;;;;;5049262;28;19927;-71
2021/04/04 03:03:55;;;;;;;;;;;14.70;52.60;;;;;;5052156;28;20235;-72
2021/04/04 03:06:21;;;;;;;;;;;14.70;54.00;;;;;;5037706;28;19909;-72
2021/04/04 03:08:48;;;;;;;;;;;14.70;53.10;;;;;;5053558;28;19908;-71
2021/04/04 03:11:15;;;;;;;;;;;14.50;53.70;;;;;;5052608;28;19946;-71
2021/04/04 03:13:44;;;;;;;;;;;14.50;52.90;;;;;;5051919;28;19913;-71
2021/04/04 03:16:11;;;;;;;;;;;14.30;54.50;;;;;;5035482;28;19912;-72
2021/04/04 03:18:39;;;;;;;;;;;14.40;53.80;;;;;;5054203;28;19909;-72
2021/04/04 03:21:05;;;;;;;;;;;14.40;52.90;;;;;;5029128;28;19997;-72
2021/04/04 03:23:31;;;;;;;;;;;14.60;53.50;;;;;;5040144;28;19915;-71
2021/04/04 03:25:58;;;;;;;;;;;14.40;52.90;;;;;;5055471;28;20306;-71
2021/04/04 03:28:25;;;;;;;;;;;14.50;53.60;;;;;;5054636;28;19909;-71
2021/04/04 03:30:51;;;;;;;;;;;14.40;53.30;;;;;;5054725;28;19904;-71
2021/04/04 03:33:18;;;;;;;;;;;14.50;53.50;;;;;;5054599;28;19989;-71
2021/04/04 03:35:45;;;;;;;;;;;14.70;53.10;;;;;;5052186;28;19921;-71
2021/04/04 03:38:11;;;;;;;;;;;14.50;53.30;;;;;;5050194;28;19939;-72
2021/04/04 03:40:37;;;;;;;;;;;14.40;53.60;;;;;;5047794;28;19909;-71
2021/04/04 03:43:08;;;;;;;;;;;14.30;53.40;;;;;;5047382;28;19912;-73
2021/04/04 03:45:34;;;;;;;;;;;14.20;52.80;;;;;;5047710;28;19939;-72
2021/04/04 03:48:01;;;;;;;;;;;14.10;53.00;;;;;;5029886;28;19924;-71
2021/04/04 03:50:28;;;;;;;;;;;14.30;53.80;;;;;;5020357;28;19909;-71
2021/04/04 03:52:54;;;;;;;;;;;14.20;53.00;;;;;;5050172;28;19920;-72
2021/04/04 03:55:23;;;;;;;;;;;14.20;52.60;;;;;;5050011;28;19917;-71
2021/04/04 03:57:50;;;;;;;;;;;14.30;53.20;;;;;;5050089;28;19978;-70
2021/04/04 04:00:18;;;;;;;;;;;14.20;52.90;;;;;;5036446;28;20289;-71
2021/04/04 04:02:45;;;;;;;;;;;14.20;52.90;;;;;;5052469;28;19912;-70
2021/04/04 04:05:12;;;;;;;;;;;14.20;53.00;;;;;;5053046;28;19916;-70
2021/04/04 04:07:38;;;;;;;;;;;14.00;54.00;;;;;;5054254;28;19908;-71
2021/04/04 04:10:05;;;;;;;;;;;14.00;53.80;;;;;;5052617;28;19909;-70
2021/04/04 04:12:32;;;;;;;;;;;13.90;54.10;;;;;;5050618;28;19913;-70
2021/04/04 04:14:59;;;;;;;;;;;13.90;53.50;;;;;;5053446;28;19908;-71
2021/04/04 04:17:25;;;;;;;;;;;14.10;54.30;;;;;;5049487;28;19909;-71
2021/04/04 04:19:52;;;;;;;;;;;14.00;53.20;;;;;;5046877;28;19996;-71
2021/04/04 04:22:18;;;;;;;;;;;14.10;53.80;;;;;;5049733;28;19917;-70
2021/04/04 04:24:51;;;;;;;;;;;14.00;53.20;;;;;;5052264;28;20250;-71
2021/04/04 04:27:17;;;;;;;;;;;13.90;53.40;;;;;;5050437;28;19908;-71
2021/04/04 04:29:48;;;;;;;;;;;13.80;53.70;;;;;;5052899;28;19913;-71
2021/04/04 04:32:19;;;;;;;;;;;13.80;54.00;;;;;;5035891;28;19913;-71
2021/04/04 04:34:45;;;;;;;;;;;13.80;54.20;;;;;;5053382;28;19919;-71
2021/04/04 04:37:12;;;;;;;;;;;13.80;54.60;;;;;;5052037;28;19966;-71
2021/04/04 04:39:39;;;;;;;;;;;14.00;54.30;;;;;;5054932;28;19996;-71
2021/04/04 04:42:05;;;;;;;;;;;14.00;55.30;;;;;;5051565;28;19967;-72
2021/04/04 04:44:33;;;;;;;;;;;13.90;54.50;;;;;;5053356;28;19908;-73
2021/04/04 04:46:59;;;;;;;;;;;14.00;55.40;;;;;;5053110;28;19912;-74
2021/04/04 04:49:26;;;;;;;;;;;13.90;55.30;;;;;;5052734;28;19952;-73
2021/04/04 04:51:52;;;;;;;;;;;13.90;54.70;;;;;;5031280;28;19912;-71
2021/04/04 04:54:18;;;;;;;;;;;13.90;55.50;;;;;;5033108;28;19924;-71
2021/04/04 04:56:44;;;;;;;;;;;13.80;55.30;;;;;;5035146;28;19908;-70
2021/04/04 04:59:11;;;;;;;;;;;13.80;55.40;;;;;;5033312;28;19987;-71
2021/04/04 05:01:41;;;;;;;;;;;13.80;56.30;;;;;;5052871;28;19909;-71
2021/04/04 05:04:08;;;;;;;;;;;13.80;56.30;;;;;;5036399;28;19924;-71
2021/04/04 05:06:34;;;;;;;;;;;13.90;56.00;;;;;;5052094;28;19917;-71
2021/04/04 05:09:00;;;;;;;;;;;13.80;56.10;;;;;;5051886;28;19913;-72
2021/04/04 05:11:27;;;;;;;;;;;13.80;56.30;;;;;;5049430;28;19923;-71
2021/04/04 05:13:53;;;;;;;;;;;13.70;55.90;;;;;;5050391;28;19959;-72
2021/04/04 05:16:19;;;;;;;;;;;13.70;57.00;;;;;;5059728;28;19916;-71
2021/04/04 05:18:47;;;;;;;;;;;13.70;56.30;;;;;;5061375;28;19909;-72
2021/04/04 05:21:18;;;;;;;;;;;13.70;56.00;;;;;;5058364;28;19909;-71
2021/04/04 05:23:44;;;;;;;;;;;13.50;56.30;;;;;;5054213;28;20361;-71
2021/04/04 05:26:11;;;;;;;;;;;13.50;56.50;;;;;;5057699;28;19912;-71
2021/04/04 05:28:37;;;;;;;;;;;13.60;56.80;;;;;;5057711;28;19958;-71
2021/04/04 05:31:03;;;;;;;;;;;13.60;56.50;;;;;;5058606;28;19905;-71
2021/04/04 05:33:30;;;;;;;;;;;13.60;56.50;;;;;;5056702;28;20059;-71
2021/04/04 05:36:00;;;;;;;;;;;13.60;56.30;;;;;;5052195;28;19912;-71
2021/04/04 05:38:26;;;;;;;;;;;13.40;56.30;;;;;;5037502;28;19967;-71
2021/04/04 05:40:55;;;;;;;;;;;13.40;56.20;;;;;;5056140;28;19909;-71
2021/04/04 05:43:24;;;;;;;;;;;13.40;56.50;;;;;;5055722;28;19909;-70
2021/04/04 05:46:00;;;;;;;;;;;13.40;56.80;;;;;;5057026;28;19909;-71
2021/04/04 05:48:43;;;;;;;;;;;13.40;56.80;;;;;;5056182;28;19940;-71
2021/04/04 05:51:27;;;;;;;;;;;13.30;56.80;;;;;;5038633;28;19909;-70
2021/04/04 05:54:01;;;;;;;;;;;13.30;56.80;;;;;;5055452;28;20023;-71
2021/04/04 05:56:41;;;;;;;;;;;13.30;57.00;;;;;;5038830;28;19909;-71
2021/04/04 05:59:09;;;;;;;;;;;13.20;57.50;;;;;;5037378;28;19908;-71
2021/04/04 06:01:50;;;;;;;;;;;13.30;56.80;;;;;;5055096;28;19912;-71
2021/04/04 06:04:35;;;;;;;;;;;13.30;57.90;;;;;;5056277;28;20338;-72
2021/04/04 06:07:17;;;;;;;;;;;13.30;56.80;;;;;;5055944;28;19913;-72
2021/04/04 06:09:51;;;;;;;;;;;13.30;57.30;;;;;;5057088;28;20330;-71
2021/04/04 06:12:27;;;;;;;;;;;13.30;57.80;;;;;;5057735;28;20326;-71
2021/04/04 06:15:04;;;;;;;;;;;13.40;58.30;;;;;;5058399;28;19905;-71
2021/04/04 06:17:48;;;;;;;;;;;13.40;57.20;;;;;;5055781;28;20334;-71
2021/04/04 06:20:41;;;;;;;;;;;13.30;56.90;;;;;;5038102;28;19915;-71
2021/04/04 06:23:17;;;;;;;;;;;13.20;56.90;;;;;;5031917;28;20297;-71
2021/04/04 06:26:01;;;;;;;;;;;13.30;57.10;;;;;;5057154;28;19908;-71
2021/04/04 06:28:40;;;;;;;;;;;13.30;56.90;;;;;;5056123;28;20315;-71
2021/04/04 06:31:16;;;;;;;;;;;13.40;56.90;;;;;;5054500;28;19958;-71
2021/04/04 06:33:45;;;;;;;;;;;13.20;57.20;;;;;;5036147;28;19927;-71
2021/04/04 06:36:29;;;;;;;;;;;13.20;56.70;;;;;;5037521;28;19923;-71
2021/04/04 06:39:14;;;;;;;;;;;13.30;56.80;;;;;;5055941;28;19916;-71
2021/04/04 06:41:49;;;;;;;;;;;13.30;56.80;;;;;;5038930;28;19995;-71
2021/04/04 06:44:20;;;;;;;;;;;13.40;57.70;;;;;;5054014;28;19909;-71
2021/04/04 06:47:00;;;;;;;;;;;13.40;56.30;;;;;;5036748;28;19966;-71
2021/04/04 06:49:30;;;;;;;;;;;13.30;56.30;;;;;;5038774;28;19905;-72
2021/04/04 06:51:56;;;;;;;;;;;13.30;56.60;;;;;;5054007;28;19909;-71
2021/04/04 06:54:40;;;;;;;;;;;13.30;57.50;;;;;;5056265;28;19909;-71
2021/04/04 06:57:25;;;;;;;;;;;13.30;56.40;;;;;;5055854;28;19905;-71
2021/04/04 06:59:57;;;;;;;;;;;13.30;56.30;;;;;;5054745;28;19992;-71
2021/04/04 07:02:24;;;;;;;;;;;13.30;56.20;;;;;;5050771;28;19932;-71
2021/04/04 07:04:53;;;;;;;;;;;13.30;57.10;;;;;;5056261;28;19905;-71
2021/04/04 07:07:37;;;;;;;;;;;13.50;56.70;;;;;;5030940;28;19949;-71
2021/04/04 07:10:33;;;;;;;;;;;13.50;56.80;;;;;;5054609;28;19909;-72
2021/04/04 07:13:21;;;;;;;;;;;13.70;57.20;;;;;;5044979;28;19913;-72
2021/04/04 07:16:02;;;;;;;;;;;13.60;56.40;;;;;;5061512;28;19905;-71
2021/04/04 07:18:47;;;;;;;;;;;13.50;56.40;;;;;;5057300;28;19909;-71
2021/04/04 07:21:32;;;;;;;;;;;13.60;56.80;;;;;;5048220;28;19920;-71
2021/04/04 07:24:27;;;;;;;;;;;13.60;56.50;;;;;;5053753;28;20285;-71
2021/04/04 07:27:01;;;;;;;;;;;13.80;57.70;;;;;;4997321;28;19920;-71
2021/04/04 07:29:41;;;;;;;;;;;13.90;57.70;;;;;;5037753;28;19992;-72
2021/04/04 07:32:13;;;;;;;;;;;13.90;57.60;;;;;;5050971;28;20011;-71
2021/04/04 07:34:52;;;;;;;;;;;13.90;56.50;;;;;;5052871;28;19976;-71
2021/04/04 07:37:27;;;;;;;;;;;14.00;57.20;;;;;;5051963;28;19921;-71
2021/04/04 07:40:01;;;;;;;;;;;14.00;57.00;;;;;;5053254;28;19950;-71
2021/04/04 07:42:45;;;;;;;;;;;13.90;56.50;;;;;;5054019;28;19909;-72
2021/04/04 07:45:22;;;;;;;;;;;13.90;56.40;;;;;;5050191;28;19912;-72
2021/04/04 07:48:07;;;;;;;;;;;13.90;56.50;;;;;;5044048;28;20004;-72
2021/04/04 07:50:34;;;;;;;;;;;14.00;56.40;;;;;;5047586;28;19917;-73
2021/04/04 07:53:08;;;;;;;;;;;14.00;56.70;;;;;;5046741;28;20398;-72
2021/04/04 07:55:38;;;;;;;;;;;14.00;56.50;;;;;;5044253;28;19913;-72
2021/04/04 07:58:22;;;;;;;;;;;14.10;56.60;;;;;;5055813;28;19935;-72
2021/04/04 08:00:51;;;;;;;;;;;14.20;56.00;;;;;;5057734;28;20361;-74
2021/04/04 08:03:22;;;;;;;;;;;13.90;57.30;;;;;;5037555;28;19917;-72
2021/04/04 08:05:50;;;;;;;;;;;13.90;56.80;;;;;;5049328;28;19909;-72
2021/04/04 08:08:28;;;;;;;;;;;14.00;55.60;;;;;;5052242;28;20258;-72
2021/04/04 08:11:12;;;;;;;;;;;14.10;55.30;;;;;;5053168;28;19934;-71
2021/04/04 08:13:38;;;;;;;;;;;13.90;56.00;;;;;;5051990;28;19920;-72
2021/04/04 08:16:10;;;;;;;;;;;13.80;55.90;;;;;;5052381;28;20302;-71
2021/04/04 08:18:37;;;;;;;;;;;13.80;55.00;;;;;;5053849;28;19935;-71
2021/04/04 08:21:20;;;;;;;;;;;13.80;55.30;;;;;;5052167;28;19939;-71
2021/04/04 08:23:53;;;;;;;;;;;14.00;54.10;;;;;;5054273;28;19912;-71
2021/04/04 08:26:30;;;;;;;;;;;14.00;54.50;;;;;;5052244;28;20365;-71
2021/04/04 08:29:24;;;;;;;;;;;14.10;54.30;;;;;;5053814;28;20270;-71
2021/04/04 08:31:57;;;;;;;;;;;14.10;54.30;;;;;;5030214;28;19923;-72
2021/04/04 08:34:23;;;;;;;;;;;14.10;54.00;;;;;;5052841;28;19967;-72
2021/04/04 08:37:00;;;;;;;;;;;14.00;53.80;;;;;;5035803;28;20012;-71
2021/04/04 08:39:30;;;;;;;;;;;14.00;53.50;;;;;;5036167;28;19986;-71
2021/04/04 08:41:58;;;;;;;;;;;14.00;53.80;;;;;;5053178;28;19909;-72
2021/04/04 08:44:31;;;;;;;;;;;14.00;53.60;;;;;;5053875;28;19913;-71
2021/04/04 08:47:19;;;;;;;;;;;13.90;53.80;;;;;;5053042;28;19908;-72
2021/04/04 08:49:46;;;;;;;;;;;14.00;53.70;;;;;;5051972;28;19909;-71
2021/04/04 08:52:12;;;;;;;;;;;14.10;53.40;;;;;;5055301;28;19912;-71
2021/04/04 08:54:40;;;;;;;;;;;13.90;53.60;;;;;;5056411;28;20037;-71
2021/04/04 08:57:06;;;;;;;;;;;13.90;53.80;;;;;;5056899;28;19908;-71
2021/04/04 08:59:33;;;;;;;;;;;14.00;53.60;;;;;;5057170;28;19920;-71
2021/04/04 09:02:02;;;;;;;;;;;14.00;53.40;;;;;;5055023;28;20016;-71
2021/04/04 09:04:28;;;;;;;;;;;14.10;53.40;;;;;;5054030;28;19919;-71
2021/04/04 09:07:01;;;;;;;;;;;14.20;53.50;;;;;;5056246;28;19955;-72
2021/04/04 09:09:28;;;;;;;;;;;14.20;53.50;;;;;;5039449;28;20025;-73
2021/04/04 09:11:57;;;;;;;;;;;14.40;52.70;;;;;;5060605;28;19916;-72
2021/04/04 09:14:24;;;;;;;;;;;14.30;53.00;;;;;;5060453;28;19912;-73
2021/04/04 09:16:54;;;;;;;;;;;14.20;53.30;;;;;;5056736;28;19913;-71
2021/04/04 09:19:36;;;;;;;;;;;14.20;53.30;;;;;;5056303;28;19924;-71
2021/04/04 09:22:17;;;;;;;;;;;14.30;53.30;;;;;;5055955;28;20335;-71
2021/04/04 09:24:49;;;;;;;;;;;14.40;52.90;;;;;;5054719;28;20315;-71
2021/04/04 09:27:19;;;;;;;;;;;14.20;53.10;;;;;;5038432;28;19931;-72
2021/04/04 09:29:46;;;;;;;;;;;14.30;53.20;;;;;;5056318;28;19936;-71
2021/04/04 09:32:25;;;;;;;;;;;14.40;53.10;;;;;;5055935;28;19909;-71
2021/04/04 09:34:52;;;;;;;;;;;14.40;52.80;;;;;;5053282;28;20019;-71
2021/04/04 09:37:22;;;;;;;;;;;14.40;52.80;;;;;;5038974;28;19927;-71
2021/04/04 09:39:49;;;;;;;;;;;14.50;52.70;;;;;;5054176;28;19916;-71
2021/04/04 09:42:15;;;;;;;;;;;14.50;52.60;;;;;;5055072;28;19908;-71
2021/04/04 09:44:41;;;;;;;;;;;14.40;52.70;;;;;;5052557;28;19912;-71
2021/04/04 09:47:07;;;;;;;;;;;14.40;52.60;;;;;;5055948;28;19919;-72
2021/04/04 09:49:36;;;;;;;;;;;14.40;52.40;;;;;;5054575;28;19909;-71
2021/04/04 09:52:24;;;;;;;;;;;14.40;52.70;;;;;;5055144;28;20373;-71
2021/04/04 09:54:56;;;;;;;;;;;14.30;52.90;;;;;;5055988;28;19917;-71
2021/04/04 09:57:22;;;;;;;;;;;14.30;53.20;;;;;;5055638;28;20008;-72
2021/04/04 09:59:48;;;;;;;;;;;14.40;53.00;;;;;;5055665;28;19909;-71
2021/04/04 10:02:28;;;;;;;;;;;14.40;53.10;;;;;;5054505;28;19908;-71
2021/04/04 10:04:54;;;;;;;;;;;14.40;53.00;;;;;;5052284;28;19924;-71
2021/04/04 10:07:30;;;;;;;;;;;14.30;53.40;;;;;;5038821;28;19959;-71
2021/04/04 10:09:57;;;;;;;;;;;14.30;53.20;;;;;;5037231;28;19909;-71
2021/04/04 10:12:23;;;;;;;;;;;14.30;53.50;;;;;;5054123;28;19913;-71
2021/04/04 10:14:59;;;;;;;;;;;14.10;54.20;;;;;;5053046;28;20467;-71
2021/04/04 10:17:25;;;;;;;;;;;13.90;54.30;;;;;;5055206;28;20317;-71
2021/04/04 10:19:55;;;;;;;;;;;14.10;54.00;;;;;;5053217;28;19989;-71
2021/04/04 10:22:21;;;;;;;;;;;14.10;54.30;;;;;;5054874;28;20262;-71
2021/04/04 10:24:48;;;;;;;;;;;14.20;53.80;;;;;;5037606;28;19909;-71
2021/04/04 10:27:25;;;;;;;;;;;14.10;54.40;;;;;;5055273;28;20306;-71
2021/04/04 10:30:06;;;;;;;;;;;14.20;53.80;;;;;;5056368;28;19909;-71
2021/04/04 10:32:32;;;;;;;;;;;14.30;54.00;;;;;;5055145;28;19909;-72
2021/04/04 10:34:59;;;;;;;;;;;14.30;53.70;;;;;;5053446;28;19919;-72
2021/04/04 10:37:25;;;;;;;;;;;14.10;54.50;;;;;;5055463;28;20005;-71
2021/04/04 10:39:59;;;;;;;;;;;14.10;54.10;;;;;;5036634;28;19952;-72
2021/04/04 10:42:26;;;;;;;;;;;14.10;54.40;;;;;;5055510;28;19919;-72
2021/04/04 10:45:12;;;;;;;;;;;14.20;53.60;;;;;;5054243;28;20061;-72
2021/04/04 10:47:38;;;;;;;;;;;14.30;53.00;;;;;;5053341;28;19913;-72
2021/04/04 10:50:07;;;;;;;;;;;14.30;53.00;;;;;;5054486;28;19920;-71
2021/04/04 10:52:34;;;;;;;;;;;14.30;53.00;;;;;;5052271;28;19916;-71
2021/04/04 10:55:01;;;;;;;;;;;14.30;53.10;;;;;;5035031;28;19927;-72
2021/04/04 10:57:28;;;;;;;;;;;14.20;53.20;;;;;;5053454;28;19935;-71
2021/04/04 10:59:55;;;;;;;;;;;14.20;53.20;;;;;;5053754;28;19909;-72
2021/04/04 11:02:23;;;;;;;;;;;14.30;52.90;;;;;;5053976;28;19908;-73
2021/04/04 11:04:49;;;;;;;;;;;14.20;53.10;;;;;;5053845;28;20004;-71
2021/04/04 11:07:16;;;;;;;;;;;14.20;53.10;;;;;;5052998;28;19919;-72
2021/04/04 11:09:42;;;;;;;;;;;14.20;53.30;;;;;;5058368;28;19909;-72
2021/04/04 11:12:09;;;;;;;;;;;14.10;53.60;;;;;;5041002;28;20235;-73
2021/04/04 11:14:35;;;;;;;;;;;14.10;53.80;;;;;;5054650;28;19991;-71
2021/04/04 11:17:02;;;;;;;;;;;13.80;54.20;;;;;;5053683;28;19916;-71
2021/04/04 11:19:29;;;;;;;;;;;13.90;54.00;;;;;;5054155;28;19944;-72
2021/04/04 11:21:57;;;;;;;;;;;14.00;53.70;;;;;;5053544;28;19912;-71
2021/04/04 11:24:23;;;;;;;;;;;14.10;53.60;;;;;;5054330;28;19917;-72
2021/04/04 11:26:50;;;;;;;;;;;14.20;53.40;;;;;;5036397;28;19920;-71
2021/04/04 11:29:20;;;;;;;;;;;14.20;53.60;;;;;;5053211;28;20319;-71
2021/04/04 11:31:46;;;;;;;;;;;14.30;53.10;;;;;;5051802;28;19931;-71
2021/04/04 11:34:23;;;;;;;;;;;14.10;53.30;;;;;;5036861;28;19967;-71
2021/04/04 11:36:49;;;;;;;;;;;14.20;53.10;;;;;;5054468;28;19967;-71
2021/04/04 11:39:16;;;;;;;;;;;14.20;53.10;;;;;;5054942;28;19992;-71
2021/04/04 11:42:00;;;;;;;;;;;14.20;53.10;;;;;;5052705;28;20031;-71
2021/04/04 11:44:36;;;;;;;;;;;14.20;53.20;;;;;;5055107;28;19911;-71
2021/04/04 11:47:06;;;;;;;;;;;14.10;53.00;;;;;;5054799;28;19918;-71
2021/04/04 11:49:36;;;;;;;;;;;13.90;53.20;;;;;;5052951;28;20250;-71
2021/04/04 11:52:08;;;;;;;;;;;14.10;53.20;;;;;;5054519;28;19904;-71
2021/04/04 11:54:46;;;;;;;;;;;14.10;53.40;;;;;;5052194;28;19919;-71
2021/04/04 11:57:31;;;;;;;;;;;14.00;53.60;;;;;;5052537;28;19932;-71
2021/04/04 11:59:59;;;;;;;;;;;14.10;53.50;;;;;;5054159;28;19951;-71
2021/04/04 12:02:26;;;;;;;;;;;14.10;53.50;;;;;;5053725;28;19909;-71
2021/04/04 12:05:06;;;;;;;;;;;14.20;53.20;;;;;;5052337;28;20416;-71
2021/04/04 12:07:33;;;;;;;;;;;14.30;53.30;;;;;;5053427;28;20058;-71
2021/04/04 12:10:00;;;;;;;;;;;14.30;52.70;;;;;;5050509;28;20456;-71
2021/04/04 12:12:32;;;;;;;;;;;14.30;52.70;;;;;;5052359;28;19909;-71
2021/04/04 12:14:58;;;;;;;;;;;14.30;52.60;;;;;;5053828;28;20354;-71
2021/04/04 12:17:26;;;;;;;;;;;14.40;52.30;;;;;;5052684;28;19909;-71
2021/04/04 12:19:52;;;;;;;;;;;14.20;53.00;;;;;;5054261;28;20451;-71
2021/04/04 12:22:19;;;;;;;;;;;14.20;53.10;;;;;;5053105;28;20000;-71
2021/04/04 12:24:49;;;;;;;;;;;14.20;53.20;;;;;;5052709;28;19913;-71
2021/04/04 12:27:19;;;;;;;;;;;14.20;52.50;;;;;;5057560;28;19909;-71
2021/04/04 12:29:46;;;;;;;;;;;14.30;52.20;;;;;;5057236;28;19909;-71
2021/04/04 12:32:22;;;;;;;;;;;14.30;52.10;;;;;;5056319;28;19951;-72
2021/04/04 12:34:50;;;;;;;;;;;14.30;52.00;;;;;;5056429;28;19958;-72
2021/04/04 12:37:19;;;;;;;;;;;14.20;51.80;;;;;;5056461;28;19912;-72
2021/04/04 12:39:45;;;;;;;;;;;14.10;52.00;;;;;;5057373;28;19919;-72
2021/04/04 12:42:12;;;;;;;;;;;14.00;52.20;;;;;;5055802;28;19908;-72
2021/04/04 12:44:40;;;;;;;;;;;14.00;52.10;;;;;;5056857;28;19909;-71
2021/04/04 12:47:07;;;;;;;;;;;14.10;52.10;;;;;;5037569;28;19916;-71
2021/04/04 12:49:33;;;;;;;;;;;14.10;52.00;;;;;;5055123;28;19908;-72
2021/04/04 12:51:59;;;;;;;;;;;14.00;52.00;;;;;;5056162;28;19913;-71
2021/04/04 12:54:26;;;;;;;;;;;14.00;51.80;;;;;;5054806;28;20319;-72
2021/04/04 12:56:52;;;;;;;;;;;13.90;52.00;;;;;;5055687;28;19963;-71
2021/04/04 12:59:18;;;;;;;;;;;13.90;52.00;;;;;;5057849;28;19905;-72
2021/04/04 13:01:45;;;;;;;;;;;14.10;51.70;;;;;;5055673;28;20388;-71
2021/04/04 13:04:18;;;;;;;;;;;14.10;51.50;;;;;;5038202;28;19916;-72
2021/04/04 13:06:47;;;;;;;;;;;14.10;51.80;;;;;;5056742;28;20267;-72
2021/04/04 13:09:14;;;;;;;;;;;14.20;51.30;;;;;;5051930;28;19908;-72
2021/04/04 13:11:41;;;;;;;;;;;14.10;51.80;;;;;;5061073;28;20015;-72
2021/04/04 13:14:07;;;;;;;;;;;14.00;51.80;;;;;;5056059;28;19916;-71
2021/04/04 13:16:33;;;;;;;;;;;14.10;51.80;;;;;;5055235;28;20061;-71
2021/04/04 13:18:59;;;;;;;;;;;14.00;52.00;;;;;;5056214;28;19909;-71
2021/04/04 13:21:26;;;;;;;;;;;14.10;52.00;;;;;;5056366;28;20466;-71
2021/04/04 13:23:56;;;;;;;;;;;14.00;52.10;;;;;;5055411;28;19988;-71
2021/04/04 13:26:23;;;;;;;;;;;14.10;52.10;;;;;;5056009;28;19916;-71
2021/04/04 13:29:03;;;;;;;;;;;14.10;52.10;;;;;;5054843;28;19912;-72
2021/04/04 13:31:29;;;;;;;;;;;14.00;52.00;;;;;;5053919;28;19959;-71
2021/04/04 13:34:06;;;;;;;;;;;14.10;52.10;;;;;;5055124;28;19926;-72
2021/04/04 13:36:32;;;;;;;;;;;14.00;52.00;;;;;;5054858;28;19917;-72
2021/04/04 13:38:59;;;;;;;;;;;13.90;52.70;;;;;;5039841;28;19931;-71
2021/04/04 13:41:25;;;;;;;;;;;14.00;52.20;;;;;;5055658;28;19909;-72
2021/04/04 13:43:55;;;;;;;;;;;14.00;52.00;;;;;;5055474;28;19975;-71
2021/04/04 13:46:32;;;;;;;;;;;14.10;51.70;;;;;;5053919;28;19908;-72
2021/04/04 13:49:03;;;;;;;;;;;14.00;52.00;;;;;;5036686;28;20330;-72
2021/04/04 13:51:29;;;;;;;;;;;14.00;52.00;;;;;;5056447;28;19999;-71
2021/04/04 13:54:01;;;;;;;;;;;14.00;52.00;;;;;;5054466;28;19963;-71
2021/04/04 13:56:37;;;;;;;;;;;13.90;52.10;;;;;;5054394;28;19908;-72
2021/04/04 13:59:19;;;;;;;;;;;14.00;51.90;;;;;;5056360;28;19954;-72
2021/04/04 14:01:55;;;;;;;;;;;14.10;51.70;;;;;;5053906;28;19917;-72
2021/04/04 14:04:22;;;;;;;;;;;13.90;52.10;;;;;;5055416;28;20320;-71
2021/04/04 14:06:52;;;;;;;;;;;13.90;52.10;;;;;;5052982;28;19923;-72
2021/04/04 14:09:19;;;;;;;;;;;13.70;52.50;;;;;;5036145;28;19917;-71
2021/04/04 14:11:45;;;;;;;;;;;13.80;52.40;;;;;;5054360;28;20380;-72
2021/04/04 14:14:12;;;;;;;;;;;13.90;52.10;;;;;;5051933;28;19921;-72
2021/04/04 14:16:38;;;;;;;;;;;14.10;51.70;;;;;;5053927;28;19913;-71
2021/04/04 14:19:04;;;;;;;;;;;14.00;51.80;;;;;;5056627;28;19939;-73
2021/04/04 14:21:30;;;;;;;;;;;14.00;52.00;;;;;;5055300;28;19959;-72
2021/04/04 14:23:57;;;;;;;;;;;14.20;51.50;;;;;;5054490;28;19916;-71
2021/04/04 14:26:23;;;;;;;;;;;14.10;51.80;;;;;;5051817;28;19909;-71
2021/04/04 14:28:50;;;;;;;;;;;14.00;52.20;;;;;;5053341;28;19920;-71
2021/04/04 14:31:16;;;;;;;;;;;14.20;51.60;;;;;;5055120;28;19909;-71
2021/04/04 14:33:42;;;;;;;;;;;14.20;51.30;;;;;;5052132;28;19956;-70